createdAt,value
2023-03-15T00:13:47.613Z,100.00
2023-03-15T00:17:35.662Z,100.00
2023-03-15T00:21:23.186Z,100.00
2023-03-15T00:25:11.006Z,100.00
2023-03-15T00:28:58.458Z,100.00
2023-03-15T00:48:14.427Z,100.00
2023-03-15T00:52:03.499Z,100.00
2023-03-15T00:55:52.960Z,100.00
2023-03-15T00:59:31.594Z,100.00
2023-03-15T01:03:20.938Z,100.00
2023-03-15T01:07:00.291Z,100.00
2023-03-15T01:10:49.924Z,100.00
2023-03-15T01:14:09.626Z,100.00
2023-03-15T01:21:50.055Z,100.00
2023-03-15T01:40:26.795Z,100.00
2023-03-15T01:44:18.647Z,100.00
2023-03-15T01:48:07.143Z,100.00
2023-03-15T01:51:59.056Z,100.00
2023-03-15T01:55:49.020Z,100.00
2023-03-15T02:25:24.504Z,100.00
2023-03-15T02:29:13.669Z,100.00
2023-03-15T02:33:03.876Z,100.00
2023-03-15T02:45:12.678Z,100.00
2023-03-15T02:49:01.926Z,100.00
2023-03-15T02:52:50.886Z,100.00
2023-03-15T02:56:33.610Z,100.00
2023-03-15T03:00:22.645Z,100.00
2023-03-15T03:04:11.237Z,100.00
2023-03-15T03:07:50.442Z,100.00
2023-03-15T03:11:39.868Z,100.00
2023-03-15T03:15:21.988Z,100.00
2023-03-15T03:19:11.605Z,100.00
2023-03-15T03:23:03.419Z,100.00
2023-03-15T03:26:56.435Z,100.00
2023-03-15T03:30:47.489Z,100.00
2023-03-15T03:34:35.540Z,100.00
2023-03-15T03:38:16.100Z,100.00
2023-03-15T03:42:07.141Z,100.00
2023-03-15T03:45:55.153Z,100.00
2023-03-15T04:01:03.280Z,100.00
2023-03-15T04:04:52.565Z,100.00
2023-03-15T04:08:41.617Z,100.00
2023-03-15T04:12:31.105Z,100.00
2023-03-15T04:16:21.352Z,100.00
2023-03-15T04:20:36.367Z,100.00
2023-03-15T04:40:00.740Z,100.00
2023-03-15T04:43:46.888Z,100.00
2023-03-15T04:47:51.185Z,100.00
2023-03-15T04:51:40.724Z,100.00
2023-03-15T05:10:20.997Z,100.00
2023-03-15T05:13:20.865Z,100.00
2023-03-15T05:17:03.435Z,100.00
2023-03-15T05:20:54.144Z,100.00
2023-03-15T05:24:18.275Z,100.00
2023-03-15T05:28:06.152Z,100.00
2023-03-15T05:50:22.814Z,100.00
2023-03-15T05:53:49.381Z,100.00
2023-03-15T05:57:46.449Z,100.00
2023-03-15T06:01:25.779Z,100.00
2023-03-15T06:05:20.012Z,100.00
2023-03-15T06:08:09.531Z,100.00
2023-03-15T06:11:20.334Z,100.00
2023-03-15T06:14:50.738Z,100.00
2023-03-15T06:18:32.710Z,100.00
2023-03-15T06:22:08.992Z,100.00
2023-03-15T06:25:46.281Z,100.00
2023-03-15T06:29:33.759Z,100.00
2023-03-15T06:32:46.874Z,100.00
2023-03-15T06:36:14.682Z,100.00
2023-03-15T06:39:33.955Z,100.00
2023-03-15T06:42:53.868Z,100.00
2023-03-15T06:46:24.775Z,100.00
2023-03-15T06:49:17.776Z,100.00
2023-03-15T06:52:12.595Z,100.00
2023-03-15T06:55:19.581Z,100.00
2023-03-15T06:59:07.737Z,100.00
2023-03-15T07:02:48.520Z,100.00
2023-03-15T07:06:16.292Z,100.00
2023-03-15T07:09:57.909Z,100.00
2023-03-15T07:13:25.780Z,100.00
2023-03-15T07:16:33.056Z,100.00
2023-03-15T07:19:28.950Z,100.00
2023-03-15T07:22:02.358Z,100.00
2023-03-15T07:25:12.449Z,100.00
2023-03-15T07:28:56.423Z,100.00
2023-03-15T07:32:24.587Z,100.00
2023-03-15T07:35:00.046Z,100.00
2023-03-15T07:38:13.481Z,100.00
2023-03-15T07:41:32.177Z,100.00
2023-03-15T07:44:49.077Z,100.00
2023-03-15T07:47:56.704Z,100.00
2023-03-15T07:51:03.358Z,100.00
2023-03-15T07:54:00.044Z,100.00
2023-03-15T07:57:28.952Z,100.00
2023-03-15T08:01:16.809Z,100.00
2023-03-15T08:04:57.823Z,100.00
2023-03-15T08:08:38.026Z,100.00
2023-03-15T08:12:21.728Z,100.00
2023-03-15T08:16:02.499Z,100.00
2023-03-15T08:19:50.577Z,100.00
2023-03-15T08:23:20.724Z,100.00
2023-03-15T08:27:08.638Z,100.00
2023-03-15T08:30:56.252Z,100.00
2023-03-15T08:34:42.807Z,100.00
2023-03-15T08:38:13.505Z,100.00
2023-03-15T08:41:45.084Z,99.47
2023-03-15T08:45:37.420Z,99.97
2023-03-15T08:49:20.926Z,99.63
2023-03-15T08:53:03.004Z,99.57
2023-03-15T08:56:50.888Z,99.30
2023-03-15T09:00:41.107Z,99.16
2023-03-15T09:03:55.079Z,96.46
2023-03-15T09:07:42.767Z,96.26
2023-03-15T09:11:30.658Z,95.24
2023-03-15T09:15:00.811Z,96.38
2023-03-15T09:22:23.910Z,95.27
2023-03-15T09:26:13.206Z,97.25
2023-03-15T09:29:42.125Z,96.40
2023-03-15T09:33:49.439Z,95.08
2023-03-15T09:37:38.689Z,95.21
2023-03-15T09:40:47.369Z,94.20
2023-03-15T09:44:36.393Z,93.88
2023-03-15T09:48:27.937Z,95.41
2023-03-15T09:52:08.835Z,94.08
2023-03-15T09:56:08.859Z,92.32
2023-03-15T10:00:04.465Z,92.10
2023-03-15T10:19:26.800Z,86.64
2023-03-15T10:23:13.418Z,87.65
2023-03-15T10:30:37.401Z,89.82
2023-03-15T10:34:14.785Z,87.51
2023-03-15T10:37:35.819Z,83.93
2023-03-15T10:41:40.162Z,86.13
2023-03-15T10:45:29.145Z,83.64
2023-03-15T10:49:19.139Z,85.36
2023-03-15T10:53:14.144Z,84.58
2023-03-15T11:08:41.517Z,80.68
2023-03-15T11:12:39.662Z,81.08
2023-03-15T11:16:01.873Z,80.26
2023-03-15T11:19:17.966Z,79.08
2023-03-15T11:23:07.527Z,78.95
2023-03-15T11:26:53.658Z,75.98
2023-03-15T11:30:42.988Z,75.47
2023-03-15T11:34:31.378Z,78.29
2023-03-15T11:38:22.543Z,72.52
2023-03-15T11:53:15.441Z,72.20
2023-03-15T11:57:25.888Z,71.35
2023-03-15T11:59:57.550Z,71.97
2023-03-15T12:03:30.022Z,69.55
2023-03-15T12:18:50.241Z,70.59
2023-03-15T12:22:25.291Z,70.84
2023-03-15T12:26:17.236Z,70.35
2023-03-15T12:29:50.334Z,71.66
2023-03-15T12:33:41.084Z,70.56
2023-03-15T12:37:13.869Z,68.93
2023-03-15T12:52:03.734Z,65.15
2023-03-15T12:55:59.591Z,67.98
2023-03-15T13:15:05.478Z,69.03
2023-03-15T13:18:53.458Z,68.94
2023-03-15T13:22:55.431Z,68.73
2023-03-15T13:26:52.875Z,67.78
2023-03-15T13:31:31.589Z,68.56
2023-03-15T13:35:16.901Z,69.51
2023-03-15T13:39:08.708Z,69.52
2023-03-15T13:43:01.525Z,69.24
2023-03-15T14:12:49.770Z,67.40
2023-03-15T14:16:21.576Z,68.05
2023-03-15T14:19:55.150Z,67.98
2023-03-15T14:23:43.616Z,68.75
2023-03-15T14:39:04.377Z,70.69
2023-03-15T14:42:40.696Z,69.28
2023-03-15T14:46:09.865Z,70.97
2023-03-15T14:49:54.199Z,70.85
2023-03-15T14:53:31.844Z,70.39
2023-03-15T14:56:22.125Z,70.26
2023-03-15T14:59:34.893Z,70.32
2023-03-15T15:03:22.075Z,70.42
2023-03-15T15:14:43.956Z,66.26
2023-03-15T15:18:08.572Z,66.64
2023-03-15T15:21:57.602Z,67.92
2023-03-15T15:25:35.182Z,67.45
2023-03-15T15:28:59.258Z,68.13
2023-03-15T15:32:47.321Z,68.95
2023-03-15T15:36:32.422Z,68.12
2023-03-15T15:40:04.849Z,68.41
2023-03-15T15:43:54.011Z,68.21
2023-03-15T15:47:13.084Z,68.80
2023-03-15T15:51:02.126Z,68.66
2023-03-15T15:53:59.476Z,69.27
2023-03-15T15:56:56.499Z,69.28
2023-03-15T15:59:47.125Z,69.35
2023-03-15T16:03:15.443Z,69.57
2023-03-15T16:10:36.027Z,69.95
2023-03-15T16:14:04.308Z,70.39
2023-03-15T16:17:37.119Z,70.32
2023-03-15T16:24:36.495Z,71.20
2023-03-15T16:28:18.344Z,71.64
2023-03-15T16:31:27.188Z,72.01
2023-03-15T16:35:17.910Z,72.70
2023-03-15T16:38:47.438Z,72.76
2023-03-15T16:42:16.832Z,73.25
2023-03-15T16:45:55.435Z,74.05
2023-03-15T16:49:25.551Z,74.25
2023-03-15T17:15:32.769Z,78.32
2023-03-15T17:19:14.520Z,79.25
2023-03-15T17:22:26.768Z,79.62
2023-03-15T17:25:47.973Z,80.22
2023-03-15T17:29:36.979Z,80.65
2023-03-15T17:33:24.653Z,81.14
2023-03-15T17:36:54.005Z,81.55
2023-03-15T17:40:43.854Z,81.76
2023-03-15T17:44:15.772Z,82.52
2023-03-15T17:47:54.391Z,83.05
2023-03-15T17:51:13.597Z,83.47
2023-03-15T17:54:46.591Z,84.08
2023-03-15T17:58:28.876Z,84.63
2023-03-15T18:02:18.521Z,84.98
2023-03-15T18:06:14.981Z,85.20
2023-03-15T18:10:02.424Z,85.88
2023-03-15T18:13:09.701Z,86.47
2023-03-15T18:16:49.286Z,87.00
2023-03-15T18:28:36.024Z,87.93
2023-03-15T18:32:25.590Z,88.60
2023-03-15T18:36:08.248Z,89.32
2023-03-15T18:39:33.377Z,89.97
2023-03-15T18:43:22.291Z,90.63
2023-03-15T18:47:01.680Z,91.19
2023-03-15T19:09:34.003Z,93.50
2023-03-15T19:13:23.346Z,94.13
2023-03-15T19:17:12.367Z,94.35
2023-03-15T19:21:01.876Z,94.62
2023-03-15T19:24:51.637Z,95.00
2023-03-15T19:28:29.697Z,95.46
2023-03-15T19:32:13.790Z,95.40
2023-03-15T19:35:54.155Z,95.43
2023-03-15T19:57:37.955Z,97.19
2023-03-15T20:01:09.352Z,97.50
2023-03-15T20:04:57.316Z,98.26
2023-03-15T20:08:46.983Z,99.17
2023-03-15T20:12:37.158Z,99.70
2023-03-15T20:15:46.282Z,99.97
2023-03-15T20:19:30.318Z,100.00
2023-03-15T20:22:27.533Z,100.00
2023-03-15T20:25:06.923Z,100.00
2023-03-15T20:28:10.691Z,100.00
2023-03-15T20:31:05.647Z,100.00
2023-03-15T20:34:23.208Z,100.00
2023-03-15T20:36:53.813Z,100.00
2023-03-15T20:40:21.677Z,100.00
2023-03-15T20:44:11.041Z,100.00
2023-03-15T20:48:00.275Z,100.00
2023-03-15T20:51:49.134Z,100.00
2023-03-15T20:55:38.423Z,100.00
2023-03-15T20:59:26.147Z,100.00
2023-03-15T21:03:14.039Z,100.00
2023-03-15T21:06:42.654Z,100.00
2023-03-15T21:10:01.878Z,100.00
2023-03-15T21:13:11.214Z,100.00
2023-03-15T21:16:26.430Z,100.00
2023-03-15T21:20:15.794Z,100.00
2023-03-15T21:23:45.662Z,100.00
2023-03-15T21:27:05.515Z,100.00
2023-03-15T21:30:37.561Z,100.00
2023-03-15T21:33:53.098Z,100.00
2023-03-15T21:37:21.128Z,100.00
2023-03-15T21:41:13.548Z,100.00
2023-03-15T21:45:02.578Z,100.00
2023-03-15T21:48:51.802Z,100.00
2023-03-15T21:55:27.637Z,100.00
2023-03-15T22:10:38.141Z,100.00
2023-03-15T22:14:27.355Z,100.00
2023-03-15T22:18:15.072Z,100.00
2023-03-15T22:22:04.497Z,100.00
2023-03-15T22:25:54.846Z,100.00
2023-03-15T22:38:04.496Z,100.00
2023-03-15T22:41:31.972Z,100.00
2023-03-15T22:45:19.608Z,100.00
2023-03-15T22:49:07.188Z,100.00
2023-03-15T22:52:47.572Z,100.00
2023-03-15T22:56:17.706Z,100.00
2023-03-15T23:00:07.006Z,100.00
2023-03-15T23:03:56.012Z,100.00
2023-03-15T23:07:38.146Z,100.00
2023-03-15T23:11:20.983Z,100.00
2023-03-15T23:23:14.336Z,100.00
2023-03-15T23:27:03.686Z,100.00
2023-03-15T23:30:35.733Z,100.00
2023-03-15T23:42:27.852Z,100.00
2023-03-15T23:46:10.485Z,100.00
2023-03-15T23:49:59.677Z,100.00
2023-03-15T23:53:30.126Z,100.00
